This is the latest recevied weather packets stored in our database for station/object N4OGP-WX. If no packets are shown the sender has not sent any weather packets the latest 10 day(s).
| Time | Temp. | Humidity | Pressure | Rain* | Wind** | Luminosity | Snow |
|---|---|---|---|---|---|---|---|
| 1777279095 | 19.44° C | 94% | 1011 hPa | 0 mm | - | - | - |
| 1777279035 | 23.89° C | 42% | 1020.4 hPa | 0 mm | - | - | - |
| 1777278945 | 19.44° C | 93% | 1011 hPa | 0 mm | - | - | - |
| 1777278885 | 23.89° C | 42% | 1020.4 hPa | 0 mm | - | - | - |
| 1777278825 | 19.44° C | 93% | 1010.9 hPa | 0 mm | - | - | - |
| 1777278765 | 19.44° C | 93% | 1010.9 hPa | 0 mm | - | - | - |
| 1777278705 | 23.89° C | 42% | 1020.4 hPa | 0 mm | - | - | - |
| 1777278645 | 23.89° C | 42% | 1020.4 hPa | 0 mm | - | - | - |
| 1777278585 | 19.44° C | 93% | 1010.9 hPa | 0 mm | - | - | - |
| 1777278525 | 23.89° C | 42% | 1020.4 hPa | 0 mm | - | - | - |
| 1777278435 | 19.44° C | 93% | 1010.9 hPa | 0 mm | - | - | - |
| 1777278345 | 19.44° C | 93% | 1010.9 hPa | 0 mm | - | - | - |
| 1777278285 | 19.44° C | 93% | 1010.9 hPa | 0 mm | - | - | - |
| 1777278225 | 19.44° C | 93% | 1010.8 hPa | 0 mm | - | - | - |
| 1777278165 | 20° C | 93% | 1010.9 hPa | 0 mm | - | - | - |
| 1777278075 | 23.89° C | 42% | 1020.4 hPa | 0 mm | - | - | - |
| 1777277985 | 20° C | 93% | 1010.9 hPa | 0 mm | - | - | - |
| 1777277925 | 23.89° C | 42% | 1020.4 hPa | 0 mm | - | - | - |
| 1777277865 | 20° C | 93% | 1010.9 hPa | 0 mm | - | - | - |
| 1777277805 | 23.89° C | 42% | 1020.4 hPa | 0 mm | - | - | - |
| 1777277745 | 20° C | 93% | 1010.9 hPa | 0 mm | - | - | - |
| 1777277685 | 20° C | 93% | 1010.9 hPa | 0 mm | - | - | - |
| 1777277625 | 23.89° C | 42% | 1020.4 hPa | 0 mm | - | - | - |
| 1777277565 | 20° C | 93% | 1010.9 hPa | 0 mm | - | - | - |
| 1777277475 | 20° C | 93% | 1010.9 hPa | 0 mm | - | - | - |
* Rain latest hour (hover to see other rain measurements)
** Current wind speed in m/s (hover to see current wind gust speed)